Time;durP1;ratioP1;P1;durP2;ratioP2;P2;SDS_P1;SDS_P2;PMS_P1;PMS_P2;Temp;Humidity;BMP_temperature;BMP_pressure;BME280_temperature;BME280_humidity;BME280_pressure;Samples;Min_cycle;Max_cycle;Signal;HPM_P1;HPM_P2
2023/07/26 00:00:12;;;;;;;9.60;3.80;;;13.00;99.90;;;;;;5115568;28;20039;-74
2023/07/26 00:02:38;;;;;;;6.88;3.70;;;13.00;99.90;;;;;;5115285;28;20038;-74
2023/07/26 00:05:04;;;;;;;7.05;3.50;;;13.00;99.90;;;;;;5096953;28;20048;-74
2023/07/26 00:07:30;;;;;;;6.57;3.10;;;13.00;99.90;;;;;;5115279;28;20039;-75
2023/07/26 00:09:56;;;;;;;7.10;3.22;;;13.00;99.90;;;;;;5115433;28;20514;-74
2023/07/26 00:12:21;;;;;;;7.63;4.00;;;13.00;99.90;;;;;;5080072;28;20518;-75
2023/07/26 00:14:47;;;;;;;6.55;3.20;;;13.00;99.90;;;;;;5115263;28;20484;-74
2023/07/26 00:17:13;;;;;;;7.75;3.22;;;13.00;99.90;;;;;;5115272;28;20502;-75
2023/07/26 00:19:39;;;;;;;8.20;3.60;;;13.00;99.90;;;;;;5115223;28;20046;-75
2023/07/26 00:22:05;;;;;;;7.97;3.65;;;13.00;99.90;;;;;;5096632;28;20043;-75
2023/07/26 00:24:30;;;;;;;5.97;3.42;;;13.00;99.90;;;;;;5079965;28;20035;-75
2023/07/26 00:26:56;;;;;;;8.35;3.78;;;12.90;99.90;;;;;;5115084;28;20031;-75
2023/07/26 00:29:22;;;;;;;7.57;3.75;;;13.00;99.90;;;;;;5096516;28;20051;-74
2023/07/26 00:31:48;;;;;;;5.70;3.20;;;13.00;99.90;;;;;;5096703;28;20050;-74
2023/07/26 00:34:13;;;;;;;6.78;3.78;;;13.00;99.90;;;;;;5114767;28;20044;-74
2023/07/26 00:36:39;;;;;;;6.13;3.20;;;12.90;99.90;;;;;;5096399;28;20095;-74
2023/07/26 00:39:05;;;;;;;7.93;3.60;;;12.90;99.90;;;;;;5079313;28;20117;-76
2023/07/26 00:41:31;;;;;;;7.00;3.83;;;12.90;99.90;;;;;;5096414;28;20061;-75
2023/07/26 00:43:56;;;;;;;6.82;3.45;;;12.90;99.90;;;;;;5096297;28;20039;-76
2023/07/26 00:46:23;;;;;;;9.32;4.45;;;12.90;99.90;;;;;;5114776;28;20507;-74
2023/07/26 00:48:48;;;;;;;6.40;3.10;;;12.90;99.90;;;;;;5114687;28;20039;-74
2023/07/26 00:51:15;;;;;;;6.40;3.88;;;12.90;99.90;;;;;;5114304;28;20552;-75
2023/07/26 00:53:41;;;;;;;6.70;3.50;;;12.90;99.90;;;;;;5096296;28;20046;-75
2023/07/26 00:56:07;;;;;;;7.88;4.30;;;12.90;99.90;;;;;;5114482;28;20115;-74
2023/07/26 00:58:33;;;;;;;6.88;3.53;;;12.90;99.90;;;;;;5096087;28;20044;-74
2023/07/26 01:00:59;;;;;;;7.00;3.72;;;12.90;99.90;;;;;;5096333;28;20043;-75
2023/07/26 01:03:25;;;;;;;6.47;3.17;;;12.90;99.90;;;;;;5114063;28;20043;-74
2023/07/26 01:06:07;;;;;;;6.90;3.60;;;12.90;99.90;;;;;;5079016;28;20043;-75
2023/07/26 01:08:39;;;;;;;5.70;3.23;;;12.90;99.90;;;;;;5096144;28;20036;-75
2023/07/26 01:11:07;;;;;;;;;;;13.00;99.90;;;;;;5114306;28;20277;-74
2023/07/26 01:14:01;;;;;;;5.63;3.20;;;12.90;99.90;;;;;;5114259;28;20015;-76
2023/07/26 01:16:27;;;;;;;5.53;3.20;;;12.90;99.90;;;;;;5114258;28;20510;-74
2023/07/26 01:18:53;;;;;;;6.45;3.50;;;12.90;99.90;;;;;;5113810;28;20036;-75
2023/07/26 01:21:19;;;;;;;7.03;3.20;;;12.90;99.90;;;;;;5113864;28;20031;-74
2023/07/26 01:23:45;;;;;;;7.18;3.83;;;12.90;99.90;;;;;;5095301;28;20036;-75
2023/07/26 01:26:11;;;;;;;5.85;3.45;;;12.90;99.90;;;;;;5095684;28;20394;-75
2023/07/26 01:28:36;;;;;;;6.38;3.70;;;12.80;99.90;;;;;;5113963;28;20096;-74
2023/07/26 01:31:05;;;;;;;6.25;3.05;;;12.90;99.90;;;;;;5114001;28;20039;-75
2023/07/26 01:33:34;;;;;;;7.55;3.72;;;12.90;99.90;;;;;;5113940;28;20039;-75
2023/07/26 01:36:00;;;;;;;6.20;3.50;;;12.90;99.90;;;;;;5113854;28;20093;-74
2023/07/26 01:38:27;;;;;;;7.40;3.60;;;12.80;99.90;;;;;;5095231;28;20113;-74
2023/07/26 01:40:54;;;;;;;6.07;3.50;;;12.80;99.90;;;;;;5113502;28;20047;-76
2023/07/26 01:43:20;;;;;;;6.60;3.80;;;12.80;99.90;;;;;;5078766;28;20395;-75
2023/07/26 01:45:46;;;;;;;7.32;3.33;;;12.80;99.90;;;;;;5113898;28;20391;-75
2023/07/26 01:48:12;;;;;;;8.52;4.82;;;12.80;99.90;;;;;;5095224;28;20046;-74
2023/07/26 01:50:37;;;;;;;6.93;3.47;;;12.80;99.90;;;;;;5095506;28;20077;-75
2023/07/26 01:53:03;;;;;;;7.13;3.80;;;12.80;99.90;;;;;;5113464;28;20096;-74
2023/07/26 01:55:29;;;;;;;7.38;3.72;;;12.80;99.90;;;;;;5113308;28;20093;-75
2023/07/26 01:57:58;;;;;;;6.50;3.75;;;12.80;99.90;;;;;;5113665;28;20036;-75
2023/07/26 02:00:23;;;;;;;6.40;4.03;;;12.80;99.90;;;;;;5095802;28;20440;-75
2023/07/26 02:02:49;;;;;;;7.10;4.35;;;12.80;99.90;;;;;;5095588;28;20130;-75
2023/07/26 02:05:16;;;;;;;7.45;4.30;;;12.80;99.90;;;;;;5113582;28;20402;-75
2023/07/26 02:07:42;;;;;;;6.15;3.55;;;12.80;99.90;;;;;;5095511;28;20042;-75
2023/07/26 02:10:08;;;;;;;6.93;4.50;;;12.70;99.90;;;;;;5113497;28;20403;-75
2023/07/26 02:12:34;;;;;;;7.47;4.45;;;12.70;99.90;;;;;;5113560;28;20441;-74
2023/07/26 02:15:00;;;;;;;8.48;4.53;;;12.70;99.90;;;;;;5113493;28;20122;-74
2023/07/26 02:17:26;;;;;;;7.80;4.60;;;12.60;99.90;;;;;;5095181;28;20039;-74
2023/07/26 02:19:51;;;;;;;9.57;4.45;;;12.60;99.90;;;;;;5113507;28;20055;-75
2023/07/26 02:22:17;;;;;;;7.78;4.47;;;12.60;99.90;;;;;;5113416;28;20072;-75
2023/07/26 02:24:43;;;;;;;8.20;4.55;;;12.60;99.90;;;;;;5113485;28;20043;-75
2023/07/26 02:27:09;;;;;;;7.40;4.97;;;12.50;99.90;;;;;;5113467;28;20028;-75
2023/07/26 02:29:34;;;;;;;7.15;4.35;;;12.50;99.90;;;;;;5095321;28;20084;-74
2023/07/26 02:32:00;;;;;;;8.68;4.80;;;12.50;99.90;;;;;;5094883;28;20082;-75
2023/07/26 02:34:26;;;;;;;7.32;5.30;;;12.50;99.90;;;;;;5114806;28;20494;-75
2023/07/26 02:36:54;;;;;;;8.00;4.85;;;12.40;99.90;;;;;;5117254;28;20088;-74
2023/07/26 02:39:20;;;;;;;8.63;5.70;;;12.40;99.90;;;;;;5098508;28;20060;-75
2023/07/26 02:41:46;;;;;;;8.02;6.13;;;12.40;99.90;;;;;;5116913;28;20395;-75
2023/07/26 02:44:12;;;;;;;7.45;4.45;;;12.30;99.90;;;;;;5098880;28;20135;-74
2023/07/26 02:46:38;;;;;;;10.13;6.03;;;12.30;99.90;;;;;;5117100;28;20479;-75
2023/07/26 02:49:03;;;;;;;8.25;5.93;;;12.30;99.90;;;;;;5116674;28;20127;-74
2023/07/26 02:51:29;;;;;;;10.32;6.80;;;12.30;99.90;;;;;;5098380;28;20123;-75
2023/07/26 02:53:55;;;;;;;9.63;5.97;;;12.30;99.90;;;;;;5098357;28;20414;-75
2023/07/26 02:56:21;;;;;;;9.43;5.90;;;12.20;99.90;;;;;;5116620;28;20043;-75
2023/07/26 02:58:47;;;;;;;9.50;7.18;;;12.30;99.90;;;;;;5116521;28;20031;-74
2023/07/26 03:01:15;;;;;;;7.35;5.15;;;12.20;99.90;;;;;;5098378;28;20027;-74
2023/07/26 03:03:42;;;;;;;9.50;6.47;;;12.10;99.90;;;;;;5116472;28;20039;-75
2023/07/26 03:06:08;;;;;;;10.30;6.97;;;12.10;99.90;;;;;;5098242;28;20077;-75
2023/07/26 03:08:34;;;;;;;9.05;6.18;;;12.10;99.90;;;;;;5116626;28;20479;-75
2023/07/26 03:11:00;;;;;;;10.60;6.90;;;12.10;99.90;;;;;;5116371;28;20119;-74
2023/07/26 03:13:26;;;;;;;9.38;5.57;;;12.10;99.90;;;;;;5116528;28;20490;-75
2023/07/26 03:15:52;;;;;;;8.57;5.82;;;12.10;99.90;;;;;;5116503;28;20448;-74
2023/07/26 03:18:18;;;;;;;8.68;6.28;;;12.00;99.90;;;;;;5098209;28;20035;-75
2023/07/26 03:20:46;;;;;;;8.77;6.07;;;12.10;99.90;;;;;;5081166;28;20043;-75
2023/07/26 03:23:13;;;;;;;10.05;6.10;;;12.00;99.90;;;;;;5081293;28;20039;-73
2023/07/26 03:25:38;;;;;;;8.50;6.25;;;12.10;99.90;;;;;;5098033;28;20042;-74
2023/07/26 03:28:04;;;;;;;8.93;5.20;;;12.00;99.90;;;;;;5081072;28;20036;-75
2023/07/26 03:30:30;;;;;;;7.78;5.15;;;12.10;99.90;;;;;;5115935;28;20035;-75
2023/07/26 03:32:56;;;;;;;8.63;5.38;;;12.00;99.90;;;;;;5115915;28;20042;-74
2023/07/26 03:35:22;;;;;;;7.32;5.15;;;12.00;99.90;;;;;;5115965;28;20046;-75
2023/07/26 03:37:47;;;;;;;8.90;5.90;;;12.10;99.90;;;;;;5115670;28;20032;-74
2023/07/26 03:40:14;;;;;;;7.80;5.50;;;12.00;99.90;;;;;;5098158;28;20051;-75
2023/07/26 03:42:40;;;;;;;9.05;6.70;;;12.10;99.90;;;;;;5115738;28;20392;-75
2023/07/26 03:45:07;;;;;;;8.55;6.40;;;12.00;99.90;;;;;;5080443;28;20086;-74
2023/07/26 03:47:32;;;;;;;8.73;5.47;;;12.10;99.90;;;;;;5097011;28;20047;-74
2023/07/26 03:50:01;;;;;;;11.18;6.95;;;12.00;99.90;;;;;;5115477;28;20123;-75
2023/07/26 03:52:27;;;;;;;8.32;6.00;;;12.00;99.90;;;;;;5097301;28;20028;-75
2023/07/26 03:54:54;;;;;;;10.00;6.90;;;12.10;99.90;;;;;;5096971;28;20040;-75
2023/07/26 03:57:20;;;;;;;7.47;4.85;;;12.00;99.90;;;;;;5115681;28;20045;-75
2023/07/26 03:59:45;;;;;;;10.57;6.50;;;12.10;99.90;;;;;;5115641;28;20035;-75
2023/07/26 04:02:11;;;;;;;7.93;5.30;;;12.10;99.90;;;;;;5115682;28;20422;-75
2023/07/26 04:04:37;;;;;;;9.57;6.88;;;12.10;99.90;;;;;;5115557;28;20031;-75
2023/07/26 04:07:03;;;;;;;8.90;5.70;;;12.10;99.90;;;;;;5097305;28;20044;-74
2023/07/26 04:09:29;;;;;;;8.98;6.43;;;12.10;99.90;;;;;;5097112;28;20039;-75
2023/07/26 04:11:58;;;;;;;8.93;6.25;;;12.10;99.90;;;;;;5114424;28;20132;-75
2023/07/26 04:14:27;;;;;;;8.30;5.50;;;12.10;99.90;;;;;;5096838;28;20051;-73
2023/07/26 04:16:52;;;;;;;8.32;6.03;;;12.10;99.90;;;;;;5064272;28;20123;-74
2023/07/26 04:19:18;;;;;;;8.98;5.70;;;12.10;99.90;;;;;;5114976;28;20082;-74
2023/07/26 04:21:44;;;;;;;8.13;5.35;;;12.10;99.90;;;;;;5114960;28;20092;-74
2023/07/26 04:24:10;;;;;;;8.07;5.93;;;12.10;99.90;;;;;;5096685;28;20035;-74
2023/07/26 04:26:36;;;;;;;8.40;5.90;;;12.10;99.90;;;;;;5114849;28;20422;-74
2023/07/26 04:29:01;;;;;;;8.13;5.78;;;12.20;99.90;;;;;;5114796;28;20044;-74
2023/07/26 04:31:27;;;;;;;9.38;5.47;;;12.30;99.90;;;;;;5115090;28;20031;-74
2023/07/26 04:33:53;;;;;;;8.32;5.63;;;12.30;99.90;;;;;;5096591;28;20032;-74
2023/07/26 04:36:19;;;;;;;9.40;6.10;;;12.40;99.90;;;;;;5115003;28;20032;-74
2023/07/26 04:38:45;;;;;;;8.55;6.03;;;12.50;99.90;;;;;;5096411;28;20169;-75
2023/07/26 04:41:10;;;;;;;8.98;6.20;;;12.50;99.90;;;;;;5114910;28;20164;-75
2023/07/26 04:43:36;;;;;;;8.77;5.78;;;12.50;99.90;;;;;;5114508;28;20443;-74
2023/07/26 04:46:02;;;;;;;7.75;5.35;;;12.60;99.90;;;;;;5114415;28;20043;-74
2023/07/26 04:48:28;;;;;;;10.25;5.40;;;12.70;99.90;;;;;;5096252;28;20122;-74
2023/07/26 04:50:54;;;;;;;8.48;5.70;;;12.70;99.90;;;;;;5079175;28;20043;-75
2023/07/26 04:53:19;;;;;;;7.03;5.22;;;12.80;99.90;;;;;;5079494;28;20044;-74
2023/07/26 04:55:50;;;;;;;9.05;5.30;;;12.80;99.90;;;;;;5114573;28;20031;-74
2023/07/26 04:58:16;;;;;;;8.00;5.80;;;12.90;99.90;;;;;;5113496;28;20491;-75
2023/07/26 05:00:42;;;;;;;9.18;5.75;;;12.90;99.90;;;;;;5095963;28;20075;-73
2023/07/26 05:03:09;;;;;;;9.77;6.00;;;13.00;99.90;;;;;;5114262;28;20086;-73
2023/07/26 05:05:36;;;;;;;8.27;6.43;;;13.10;99.90;;;;;;5114460;28;20116;-72
2023/07/26 05:08:03;;;;;;;8.95;5.80;;;13.20;99.90;;;;;;5114376;28;20075;-71
2023/07/26 05:10:29;;;;;;;6.93;4.70;;;13.20;99.90;;;;;;5096101;28;20483;-72
2023/07/26 05:12:58;;;;;;;11.05;5.68;;;13.20;99.90;;;;;;5096385;28;20491;-72
2023/07/26 05:15:25;;;;;;;7.93;5.32;;;13.30;99.90;;;;;;5113874;28;20043;-72
2023/07/26 05:17:51;;;;;;;9.57;5.63;;;13.20;99.90;;;;;;5113852;28;20047;-72
2023/07/26 05:20:17;;;;;;;8.35;4.80;;;13.30;99.90;;;;;;5095958;28;20040;-72
2023/07/26 05:22:42;;;;;;;11.85;6.07;;;13.30;99.90;;;;;;5114194;28;20031;-73
2023/07/26 05:25:08;;;;;;;9.35;5.38;;;13.40;99.90;;;;;;5114119;28;20111;-73
2023/07/26 05:27:34;;;;;;;9.98;5.88;;;13.50;99.90;;;;;;5079069;28;20047;-73
2023/07/26 05:30:00;;;;;;;8.82;6.13;;;13.60;99.90;;;;;;5095761;28;20495;-71
2023/07/26 05:32:26;;;;;;;8.93;6.75;;;13.70;99.90;;;;;;5113981;28;20096;-72
2023/07/26 05:34:56;;;;;;;8.85;6.10;;;13.80;99.90;;;;;;5113583;28;20040;-72
2023/07/26 05:37:23;;;;;;;8.15;5.55;;;14.10;99.90;;;;;;5113571;28;20040;-72
2023/07/26 05:39:50;;;;;;;7.63;4.50;;;14.50;99.90;;;;;;5113490;28;20097;-73
2023/07/26 05:42:16;;;;;;;9.18;5.40;;;14.60;99.90;;;;;;5095325;28;20043;-73
2023/07/26 05:44:42;;;;;;;8.65;4.78;;;14.60;99.90;;;;;;5078773;28;20047;-72
2023/07/26 05:47:13;;;;;;;10.32;5.35;;;14.50;99.90;;;;;;5113713;28;20043;-73
2023/07/26 05:49:44;;;;;;;9.00;5.50;;;14.50;99.90;;;;;;5079098;28;20071;-72
2023/07/26 05:52:11;;;;;;;7.28;4.57;;;14.40;99.90;;;;;;5095610;28;20043;-73
2023/07/26 05:54:36;;;;;;;7.70;4.32;;;14.30;99.90;;;;;;5113515;28;20040;-73
2023/07/26 05:57:03;;;;;;;8.07;4.38;;;14.20;99.90;;;;;;5095572;28;20568;-73
2023/07/26 05:59:28;;;;;;;10.00;5.55;;;14.20;99.90;;;;;;5113696;28;20067;-73
2023/07/26 06:01:54;;;;;;;7.75;4.65;;;14.10;99.90;;;;;;5095262;28;20518;-73
2023/07/26 06:04:20;;;;;;;8.40;5.68;;;14.10;99.90;;;;;;5095603;28;20054;-73
2023/07/26 06:06:46;;;;;;;9.15;5.55;;;14.00;99.90;;;;;;5113588;28;20035;-73
2023/07/26 06:09:14;;;;;;;8.35;5.30;;;14.00;99.90;;;;;;5114859;28;20036;-73
2023/07/26 06:11:42;;;;;;;7.10;4.57;;;13.90;99.90;;;;;;5117873;28;20114;-73
2023/07/26 06:14:08;;;;;;;10.60;5.97;;;13.80;99.90;;;;;;5117294;28;20097;-73
2023/07/26 06:16:34;;;;;;;8.07;5.35;;;13.80;99.90;;;;;;5117319;28;20046;-73
2023/07/26 06:19:00;;;;;;;9.50;5.40;;;13.90;99.90;;;;;;5117642;28;20035;-73
2023/07/26 06:21:26;;;;;;;8.05;6.25;;;14.00;99.90;;;;;;5117544;28;20493;-73
2023/07/26 06:23:51;;;;;;;8.00;5.63;;;14.10;99.90;;;;;;5117245;28;20624;-73
2023/07/26 06:26:17;;;;;;;7.75;5.47;;;14.20;99.90;;;;;;5117193;28;20082;-72
2023/07/26 06:28:43;;;;;;;9.10;6.45;;;14.30;99.90;;;;;;5098864;28;20380;-72
2023/07/26 06:31:10;;;;;;;9.75;6.20;;;14.30;99.90;;;;;;5099334;28;20035;-72
2023/07/26 06:33:36;;;;;;;9.05;6.40;;;14.40;99.90;;;;;;5099184;28;20040;-73
2023/07/26 06:36:01;;;;;;;9.45;5.93;;;14.40;99.90;;;;;;5117236;28;20499;-73
2023/07/26 06:38:30;;;;;;;8.50;6.07;;;14.40;99.90;;;;;;5098638;28;20564;-73
2023/07/26 06:40:55;;;;;;;8.27;5.97;;;14.40;99.90;;;;;;5117141;28;20527;-73
2023/07/26 06:43:21;;;;;;;9.05;6.10;;;14.40;99.90;;;;;;5117143;28;20119;-74
2023/07/26 06:45:50;;;;;;;8.60;6.45;;;14.40;99.90;;;;;;5117183;28;20498;-73
2023/07/26 06:48:16;;;;;;;8.48;6.15;;;14.50;99.90;;;;;;5117058;28;20035;-73
2023/07/26 06:50:42;;;;;;;10.93;6.97;;;14.60;99.90;;;;;;5116632;28;20046;-73
2023/07/26 06:53:09;;;;;;;9.43;5.97;;;14.70;99.90;;;;;;5098759;28;20043;-73
2023/07/26 06:55:36;;;;;;;9.32;6.10;;;14.70;99.90;;;;;;5116530;28;20039;-73
2023/07/26 06:58:02;;;;;;;8.48;6.22;;;14.70;99.90;;;;;;5098403;28;20032;-73
2023/07/26 07:00:27;;;;;;;8.93;5.90;;;14.80;99.90;;;;;;5116834;28;20119;-73
2023/07/26 07:03:00;;;;;;;9.48;6.43;;;14.90;99.90;;;;;;5116523;28;20495;-73
2023/07/26 07:05:28;;;;;;;10.52;6.00;;;14.90;99.90;;;;;;5116842;28;20539;-73
2023/07/26 07:07:54;;;;;;;9.88;5.93;;;15.00;99.90;;;;;;5081457;28;20475;-74
2023/07/26 07:10:21;;;;;;;9.48;7.13;;;15.00;99.90;;;;;;5116645;28;20091;-73
2023/07/26 07:12:47;;;;;;;9.02;6.00;;;15.00;99.90;;;;;;5116624;28;20472;-73
2023/07/26 07:15:14;;;;;;;8.73;5.55;;;15.00;99.90;;;;;;5098102;28;20044;-74
2023/07/26 07:17:40;;;;;;;10.05;5.90;;;15.10;99.90;;;;;;5116545;28;20054;-74
2023/07/26 07:20:07;;;;;;;9.43;6.25;;;15.10;99.90;;;;;;5115979;28;20226;-74
2023/07/26 07:22:33;;;;;;;9.35;6.40;;;15.10;99.90;;;;;;5115877;28;20062;-74
2023/07/26 07:24:59;;;;;;;8.60;6.10;;;15.00;99.90;;;;;;5116128;28;20054;-74
2023/07/26 07:27:25;;;;;;;9.68;6.82;;;15.00;99.90;;;;;;5115944;28;20042;-75
2023/07/26 07:29:51;;;;;;;9.63;6.03;;;15.00;99.90;;;;;;5116305;28;20038;-74
2023/07/26 07:32:18;;;;;;;8.35;6.00;;;15.10;99.90;;;;;;5097902;28;20083;-74
2023/07/26 07:34:44;;;;;;;8.95;5.18;;;15.10;99.90;;;;;;5115783;28;20055;-74
2023/07/26 07:37:10;;;;;;;9.38;6.50;;;15.10;99.90;;;;;;5115882;28;20036;-73
2023/07/26 07:39:37;;;;;;;9.65;5.70;;;15.10;99.90;;;;;;5097319;28;20111;-72
2023/07/26 07:42:03;;;;;;;8.63;5.78;;;15.10;99.90;;;;;;5097490;28;20048;-72
2023/07/26 07:44:29;;;;;;;11.82;7.95;;;15.10;99.90;;;;;;5115987;28;20483;-72
2023/07/26 07:46:55;;;;;;;8.35;6.28;;;15.20;99.90;;;;;;5115982;28;20506;-72
2023/07/26 07:49:20;;;;;;;8.90;5.93;;;15.20;99.90;;;;;;5115905;28;20043;-73
2023/07/26 07:51:46;;;;;;;9.38;5.28;;;15.20;99.90;;;;;;5080742;28;20043;-72
2023/07/26 07:54:12;;;;;;;8.32;5.85;;;15.20;99.90;;;;;;5115784;28;20047;-72
2023/07/26 07:56:38;;;;;;;10.80;5.85;;;15.20;99.90;;;;;;5115497;28;20449;-73
2023/07/26 07:59:04;;;;;;;9.20;5.55;;;15.10;99.90;;;;;;5080564;28;20039;-72
2023/07/26 08:01:30;;;;;;;8.27;5.55;;;15.10;99.90;;;;;;5115712;28;20035;-73
2023/07/26 08:03:59;;;;;;;11.57;6.18;;;15.00;99.90;;;;;;5097054;28;20043;-71
2023/07/26 08:06:28;;;;;;;10.13;6.63;;;14.90;99.90;;;;;;5115463;28;20093;-72
2023/07/26 08:08:54;;;;;;;9.63;5.55;;;14.80;99.90;;;;;;5115234;28;20036;-72
2023/07/26 08:11:19;;;;;;;8.98;5.80;;;14.60;99.90;;;;;;5115443;28;20114;-73
2023/07/26 08:13:48;;;;;;;8.75;5.57;;;14.50;99.90;;;;;;5115468;28;20527;-73
2023/07/26 08:16:14;;;;;;;8.27;5.60;;;14.40;99.90;;;;;;5115311;28;20075;-73
2023/07/26 08:18:40;;;;;;;8.40;5.82;;;14.30;99.90;;;;;;5114959;28;20067;-73
2023/07/26 08:21:06;;;;;;;7.53;4.20;;;14.20;99.90;;;;;;5097164;28;20035;-73
2023/07/26 08:23:32;;;;;;;8.23;4.50;;;14.10;99.90;;;;;;5115281;28;20066;-73
2023/07/26 08:26:04;;;;;;;6.32;3.78;;;14.00;99.90;;;;;;5115183;28;20036;-73
2023/07/26 08:28:30;;;;;;;6.40;3.97;;;14.00;99.90;;;;;;5096505;28;20103;-73
2023/07/26 08:30:57;;;;;;;6.57;3.90;;;14.00;99.90;;;;;;5114717;28;20074;-73
2023/07/26 08:33:23;;;;;;;6.22;3.60;;;14.00;99.90;;;;;;5114862;28;20035;-73
2023/07/26 08:35:49;;;;;;;5.63;3.40;;;14.10;99.90;;;;;;5096566;28;20175;-74
2023/07/26 08:38:15;;;;;;;7.28;4.00;;;14.20;99.90;;;;;;5114310;28;20047;-73
2023/07/26 08:40:49;;;;;;;6.82;3.80;;;14.30;99.90;;;;;;5114941;28;20510;-74
2023/07/26 08:43:19;;;;;;;6.90;3.80;;;14.50;99.90;;;;;;5114809;28;20035;-73
2023/07/26 08:45:45;;;;;;;6.65;3.40;;;14.70;99.90;;;;;;5114530;28;20075;-73
2023/07/26 08:48:11;;;;;;;7.43;3.83;;;14.90;99.90;;;;;;5096321;28;20116;-73
2023/07/26 08:50:41;;;;;;;8.05;4.40;;;15.10;99.90;;;;;;5096601;28;20066;-74
2023/07/26 08:53:08;;;;;;;10.05;4.65;;;15.30;99.90;;;;;;5096518;28;20042;-73
2023/07/26 08:55:35;;;;;;;9.02;5.68;;;15.50;99.90;;;;;;5079258;28;20087;-73
2023/07/26 08:58:02;;;;;;;7.43;5.50;;;15.50;99.90;;;;;;5114538;28;20039;-73
2023/07/26 09:00:29;;;;;;;8.82;6.05;;;15.60;99.90;;;;;;5096270;28;20044;-73
2023/07/26 09:03:01;;;;;;;9.32;6.40;;;15.70;99.90;;;;;;5079097;28;20100;-73
2023/07/26 09:05:27;;;;;;;7.90;5.28;;;15.80;99.90;;;;;;5095966;28;20092;-73
2023/07/26 09:07:53;;;;;;;6.93;4.40;;;16.00;99.90;;;;;;5114305;28;20047;-73
2023/07/26 09:10:30;;;;;;;7.93;4.65;;;16.20;99.90;;;;;;5114093;28;20043;-73
2023/07/26 09:13:15;;;;;;;8.35;4.22;;;16.40;99.90;;;;;;5114052;28;20062;-73
2023/07/26 09:15:42;;;;;;;7.70;4.68;;;16.60;99.90;;;;;;5096103;28;20044;-74
2023/07/26 09:18:09;;;;;;;6.97;4.10;;;16.60;99.90;;;;;;5113927;28;20032;-73
2023/07/26 09:20:36;;;;;;;7.07;4.45;;;16.60;99.90;;;;;;5095730;28;20046;-73
2023/07/26 09:23:10;;;;;;;6.70;3.83;;;16.60;99.90;;;;;;5113900;28;20054;-73
2023/07/26 09:25:44;;;;;;;5.55;3.60;;;16.70;99.90;;;;;;5095863;28;20047;-73
2023/07/26 09:28:14;;;;;;;6.05;3.42;;;17.10;99.90;;;;;;5095872;28;20537;-74
2023/07/26 09:30:42;;;;;;;5.68;3.17;;;17.50;99.90;;;;;;5113783;28;20047;-73
2023/07/26 09:33:10;;;;;;;5.60;2.78;;;17.80;99.90;;;;;;5095631;28;20078;-73
2023/07/26 09:35:46;;;;;;;5.03;2.67;;;18.10;99.90;;;;;;5113865;28;20039;-74
2023/07/26 09:38:14;;;;;;;4.82;2.70;;;18.20;99.90;;;;;;5095387;28;20047;-74
2023/07/26 09:40:40;;;;;;;5.03;2.90;;;18.40;99.90;;;;;;5095316;28;20043;-74
2023/07/26 09:43:06;;;;;;;4.22;2.33;;;18.70;99.90;;;;;;5113708;28;20115;-74
2023/07/26 09:45:32;;;;;;;5.22;2.60;;;18.90;99.90;;;;;;5113176;28;20122;-74
2023/07/26 09:48:14;;;;;;;5.40;2.92;;;18.90;99.90;;;;;;5095570;28;20046;-75
2023/07/26 09:50:43;;;;;;;4.95;2.47;;;19.00;99.90;;;;;;5113439;28;20036;-74
2023/07/26 09:53:14;;;;;;;5.25;2.90;;;19.10;99.90;;;;;;5113808;28;20043;-74
2023/07/26 09:55:40;;;;;;;4.80;2.55;;;19.30;99.90;;;;;;5113399;28;20047;-74
2023/07/26 09:58:07;;;;;;;5.63;2.60;;;19.40;99.90;;;;;;5113426;28;20042;-74
2023/07/26 10:00:35;;;;;;;5.93;3.05;;;19.50;99.90;;;;;;5113441;28;20038;-74
2023/07/26 10:03:04;;;;;;;5.53;2.60;;;19.50;99.90;;;;;;5095317;28;20046;-73
2023/07/26 10:05:36;;;;;;;6.18;3.10;;;19.70;99.90;;;;;;5113321;28;20399;-75
2023/07/26 10:08:02;;;;;;;5.75;2.97;;;19.90;99.90;;;;;;5113749;28;20541;-74
2023/07/26 10:10:29;;;;;;;6.47;2.97;;;20.00;99.90;;;;;;5113380;28;20051;-74
2023/07/26 10:12:57;;;;;;;4.97;2.90;;;20.10;99.90;;;;;;5113676;28;20192;-74
2023/07/26 10:15:26;;;;;;;6.55;3.17;;;20.20;99.90;;;;;;5113198;28;20109;-75
2023/07/26 10:17:53;;;;;;;6.03;3.10;;;20.20;99.90;;;;;;5113629;28;20055;-74
2023/07/26 10:20:20;;;;;;;5.70;2.90;;;20.10;99.90;;;;;;5113234;28;20046;-74
2023/07/26 10:22:47;;;;;;;5.88;3.00;;;20.00;99.90;;;;;;5113532;28;20093;-75
2023/07/26 10:25:13;;;;;;;5.93;3.15;;;19.70;99.90;;;;;;5095085;28;20185;-75
2023/07/26 10:27:39;;;;;;;5.32;3.10;;;19.60;99.90;;;;;;5113445;28;20131;-75
2023/07/26 10:30:06;;;;;;;5.50;2.80;;;19.60;99.90;;;;;;5113501;28;20039;-75
2023/07/26 10:32:32;;;;;;;5.10;2.58;;;19.90;99.90;;;;;;5113275;28;20113;-74
2023/07/26 10:34:59;;;;;;;5.68;2.88;;;20.30;99.90;;;;;;5095220;28;20043;-74
2023/07/26 10:37:33;;;;;;;5.78;3.00;;;20.60;99.90;;;;;;5078289;28;20031;-75
2023/07/26 10:39:59;;;;;;;5.43;2.60;;;20.80;99.90;;;;;;5094753;28;20047;-74
2023/07/26 10:42:27;;;;;;;6.57;3.20;;;20.90;99.90;;;;;;5113082;28;20039;-75
2023/07/26 10:45:02;;;;;;;5.97;3.20;;;20.70;99.90;;;;;;5095107;28;20040;-75
2023/07/26 10:47:29;;;;;;;6.25;3.05;;;20.40;99.90;;;;;;5078070;28;20052;-75
2023/07/26 10:50:04;;;;;;;6.25;3.20;;;20.10;99.90;;;;;;5095079;28;20039;-75
2023/07/26 10:52:37;;;;;;;5.55;2.88;;;20.20;99.90;;;;;;5113308;28;20391;-75
2023/07/26 10:55:22;;;;;;;6.07;2.85;;;20.40;99.90;;;;;;5062348;28;20040;-75
2023/07/26 10:57:49;;;;;;;5.78;2.72;;;20.30;99.90;;;;;;5117002;28;20506;-75
2023/07/26 11:00:23;;;;;;;6.40;2.90;;;20.30;99.90;;;;;;5098738;28;20040;-74
2023/07/26 11:02:58;;;;;;;5.50;2.70;;;20.40;99.90;;;;;;5098965;28;20074;-75
2023/07/26 11:05:25;;;;;;;4.60;2.45;;;20.80;99.90;;;;;;5098418;28;20051;-75
2023/07/26 11:07:54;;;;;;;4.82;2.45;;;21.20;99.90;;;;;;5116700;28;20043;-75
2023/07/26 11:10:32;;;;;;;5.35;2.85;;;21.30;99.90;;;;;;5116460;28;20146;-75
2023/07/26 11:13:18;;;;;;;6.65;2.70;;;21.10;99.10;;;;;;5098067;28;20104;-75
2023/07/26 11:15:51;;;;;;;4.72;2.50;;;21.10;99.90;;;;;;5098099;28;20051;-73
2023/07/26 11:18:19;;;;;;;5.10;2.40;;;21.00;97.70;;;;;;5116202;28;20032;-76
2023/07/26 11:20:50;;;;;;;4.85;2.30;;;21.20;99.90;;;;;;5098093;28;20043;-74
2023/07/26 11:23:27;;;;;;;5.55;2.53;;;21.10;97.60;;;;;;5116562;28;20479;-76
2023/07/26 11:25:58;;;;;;;5.15;2.60;;;20.90;99.20;;;;;;5116405;28;20074;-75
2023/07/26 11:28:27;;;;;;;5.97;2.67;;;20.80;99.90;;;;;;5116371;28;20050;-74
2023/07/26 11:30:54;;;;;;;5.18;2.45;;;20.90;99.90;;;;;;5116340;28;20031;-74
2023/07/26 11:33:30;;;;;;;6.05;2.50;;;21.00;99.70;;;;;;5097740;28;20047;-75
2023/07/26 11:35:57;;;;;;;6.38;2.60;;;20.70;99.30;;;;;;5116152;28;20114;-75
2023/07/26 11:38:23;;;;;;;5.93;2.42;;;20.40;98.50;;;;;;5116126;28;20133;-75
2023/07/26 11:40:50;;;;;;;5.38;2.42;;;19.80;99.20;;;;;;5115688;28;20516;-75
2023/07/26 11:43:17;;;;;;;5.78;2.08;;;19.60;99.90;;;;;;5097622;28;20032;-73
2023/07/26 11:45:43;;;;;;;5.35;1.85;;;19.10;99.90;;;;;;5115570;28;20047;-72
2023/07/26 11:48:11;;;;;;;5.07;2.10;;;18.90;99.90;;;;;;5115707;28;20043;-73
2023/07/26 11:50:38;;;;;;;5.45;2.20;;;18.60;99.90;;;;;;5097349;28;20043;-73
2023/07/26 11:53:09;;;;;;;5.60;2.50;;;18.20;99.90;;;;;;5115889;28;20043;-72
2023/07/26 11:55:41;;;;;;;5.43;2.72;;;18.00;99.90;;;;;;5097032;28;20039;-73
2023/07/26 11:58:11;;;;;;;5.07;2.20;;;17.80;99.90;;;;;;5115762;28;20027;-74
2023/07/26 12:00:48;;;;;;;4.68;1.65;;;18.00;99.90;;;;;;5097595;28;20520;-74
2023/07/26 12:03:14;;;;;;;3.65;1.20;;;18.30;99.90;;;;;;5115711;28;20046;-74
2023/07/26 12:05:49;;;;;;;2.88;1.20;;;18.60;99.90;;;;;;5115581;28;20050;-75
2023/07/26 12:08:15;;;;;;;2.35;1.02;;;18.90;99.90;;;;;;5114751;28;20122;-75
2023/07/26 12:10:42;;;;;;;3.47;1.20;;;19.20;99.90;;;;;;5115502;28;20123;-75
2023/07/26 12:13:18;;;;;;;3.85;1.65;;;19.40;99.90;;;;;;5115459;28;20394;-74
2023/07/26 12:16:03;;;;;;;3.63;1.50;;;19.50;99.90;;;;;;5115455;28;20044;-74
2023/07/26 12:18:29;;;;;;;4.68;1.67;;;19.50;99.90;;;;;;5115390;28;20038;-75
2023/07/26 12:21:00;;;;;;;4.57;1.60;;;19.50;99.90;;;;;;5115315;28;20110;-76
2023/07/26 12:23:27;;;;;;;5.15;2.10;;;19.40;99.90;;;;;;5114984;28;20118;-74
2023/07/26 12:25:56;;;;;;;4.78;1.92;;;19.40;99.90;;;;;;5115281;28;20104;-75
2023/07/26 12:28:22;;;;;;;4.60;1.92;;;19.60;99.90;;;;;;5115146;28;20479;-75
2023/07/26 12:30:53;;;;;;;6.82;1.83;;;19.80;99.90;;;;;;5115110;28;20047;-74
2023/07/26 12:33:19;;;;;;;4.77;2.00;;;19.90;99.90;;;;;;5080029;28;20043;-74
2023/07/26 12:35:45;;;;;;;5.00;1.88;;;20.00;99.90;;;;;;5115005;28;20391;-74
2023/07/26 12:38:17;;;;;;;4.68;1.83;;;20.00;99.90;;;;;;5114971;28;20448;-75
2023/07/26 12:40:44;;;;;;;4.50;1.80;;;20.00;99.90;;;;;;5114486;28;20059;-74
2023/07/26 12:43:30;;;;;;;6.18;1.90;;;20.00;99.90;;;;;;5096839;28;20031;-74
2023/07/26 12:45:58;;;;;;;4.78;2.00;;;20.20;99.90;;;;;;5114822;28;20039;-74